sensor_id;sensor_type;location;lat;lon;timestamp;temperature;humidity
20288;DHT22;10303;51.960;8.372;2023-03-01T00:01:22;4.40;80.20
20288;DHT22;10303;51.960;8.372;2023-03-01T00:03:50;4.00;80.10
20288;DHT22;10303;51.960;8.372;2023-03-01T00:06:17;3.10;79.30
20288;DHT22;10303;51.960;8.372;2023-03-01T00:08:44;3.00;79.30
20288;DHT22;10303;51.960;8.372;2023-03-01T00:11:14;4.70;80.50
20288;DHT22;10303;51.960;8.372;2023-03-01T00:13:43;3.00;79.60
20288;DHT22;10303;51.960;8.372;2023-03-01T00:16:14;2.90;79.40
20288;DHT22;10303;51.960;8.372;2023-03-01T00:18:45;3.00;79.60
20288;DHT22;10303;51.960;8.372;2023-03-01T00:21:11;2.90;79.50
20288;DHT22;10303;51.960;8.372;2023-03-01T00:23:37;4.30;80.50
20288;DHT22;10303;51.960;8.372;2023-03-01T00:26:08;4.50;80.70
20288;DHT22;10303;51.960;8.372;2023-03-01T00:28:39;3.90;80.50
20288;DHT22;10303;51.960;8.372;2023-03-01T00:31:06;2.80;79.80
20288;DHT22;10303;51.960;8.372;2023-03-01T00:33:34;3.30;80.00
20288;DHT22;10303;51.960;8.372;2023-03-01T00:36:00;2.80;79.70
20288;DHT22;10303;51.960;8.372;2023-03-01T00:38:27;2.80;79.80
20288;DHT22;10303;51.960;8.372;2023-03-01T00:40:53;3.20;80.20
20288;DHT22;10303;51.960;8.372;2023-03-01T00:43:19;4.90;82.10
20288;DHT22;10303;51.960;8.372;2023-03-01T00:45:45;4.80;81.20
20288;DHT22;10303;51.960;8.372;2023-03-01T00:48:11;2.70;80.00
20288;DHT22;10303;51.960;8.372;2023-03-01T00:50:37;3.40;80.70
20288;DHT22;10303;51.960;8.372;2023-03-01T00:53:02;4.70;81.30
20288;DHT22;10303;51.960;8.372;2023-03-01T00:55:30;2.70;80.20
20288;DHT22;10303;51.960;8.372;2023-03-01T00:57:56;4.90;81.60
20288;DHT22;10303;51.960;8.372;2023-03-01T01:00:22;2.60;80.00
20288;DHT22;10303;51.960;8.372;2023-03-01T01:02:48;2.60;79.90
20288;DHT22;10303;51.960;8.372;2023-03-01T01:05:14;2.50;79.90
20288;DHT22;10303;51.960;8.372;2023-03-01T01:07:47;2.50;80.30
20288;DHT22;10303;51.960;8.372;2023-03-01T01:10:13;2.40;80.00
20288;DHT22;10303;51.960;8.372;2023-03-01T01:12:44;2.40;80.10
20288;DHT22;10303;51.960;8.372;2023-03-01T01:15:11;4.50;81.60
20288;DHT22;10303;51.960;8.372;2023-03-01T01:17:39;2.40;80.90
20288;DHT22;10303;51.960;8.372;2023-03-01T01:20:24;2.40;80.20
20288;DHT22;10303;51.960;8.372;2023-03-01T01:22:51;2.40;81.20
20288;DHT22;10303;51.960;8.372;2023-03-01T01:25:18;4.40;81.60
20288;DHT22;10303;51.960;8.372;2023-03-01T01:27:44;2.30;80.30
20288;DHT22;10303;51.960;8.372;2023-03-01T01:30:10;2.30;80.50
20288;DHT22;10303;51.960;8.372;2023-03-01T01:32:37;2.30;80.40
20288;DHT22;10303;51.960;8.372;2023-03-01T01:35:03;4.00;81.60
20288;DHT22;10303;51.960;8.372;2023-03-01T01:37:29;2.30;80.70
20288;DHT22;10303;51.960;8.372;2023-03-01T01:39:59;3.00;82.10
20288;DHT22;10303;51.960;8.372;2023-03-01T01:42:26;2.20;80.40
20288;DHT22;10303;51.960;8.372;2023-03-01T01:45:32;3.40;81.20
20288;DHT22;10303;51.960;8.372;2023-03-01T01:48:12;2.20;81.10
20288;DHT22;10303;51.960;8.372;2023-03-01T01:50:43;4.20;82.10
20288;DHT22;10303;51.960;8.372;2023-03-01T01:53:15;4.30;81.90
20288;DHT22;10303;51.960;8.372;2023-03-01T01:55:47;4.20;82.00
20288;DHT22;10303;51.960;8.372;2023-03-01T01:58:19;2.10;80.70
20288;DHT22;10303;51.960;8.372;2023-03-01T02:00:47;3.90;81.80
20288;DHT22;10303;51.960;8.372;2023-03-01T02:03:18;3.70;81.70
20288;DHT22;10303;51.960;8.372;2023-03-01T02:09:06;2.00;81.20
20288;DHT22;10303;51.960;8.372;2023-03-01T02:11:36;4.00;82.10
20288;DHT22;10303;51.960;8.372;2023-03-01T02:14:03;2.30;80.90
20288;DHT22;10303;51.960;8.372;2023-03-01T02:16:30;3.60;81.80
20288;DHT22;10303;51.960;8.372;2023-03-01T02:18:57;3.40;81.70
20288;DHT22;10303;51.960;8.372;2023-03-01T02:21:42;1.80;80.80
20288;DHT22;10303;51.960;8.372;2023-03-01T02:24:55;1.80;81.00
20288;DHT22;10303;51.960;8.372;2023-03-01T02:27:47;1.80;81.20
20288;DHT22;10303;51.960;8.372;2023-03-01T02:30:21;1.80;81.00
20288;DHT22;10303;51.960;8.372;2023-03-01T02:32:48;1.70;80.70
20288;DHT22;10303;51.960;8.372;2023-03-01T02:35:18;1.70;80.90
20288;DHT22;10303;51.960;8.372;2023-03-01T02:37:45;1.70;81.60
20288;DHT22;10303;51.960;8.372;2023-03-01T02:40:17;3.70;82.10
20288;DHT22;10303;51.960;8.372;2023-03-01T02:42:53;1.60;81.00
20288;DHT22;10303;51.960;8.372;2023-03-01T02:45:21;4.00;82.60
20288;DHT22;10303;51.960;8.372;2023-03-01T02:47:48;2.60;81.80
20288;DHT22;10303;51.960;8.372;2023-03-01T02:53:10;1.50;81.60
20288;DHT22;10303;51.960;8.372;2023-03-01T02:55:42;2.30;82.00
20288;DHT22;10303;51.960;8.372;2023-03-01T02:58:09;3.00;82.10
20288;DHT22;10303;51.960;8.372;2023-03-01T03:00:41;2.40;81.80
20288;DHT22;10303;51.960;8.372;2023-03-01T03:03:17;1.50;81.60
20288;DHT22;10303;51.960;8.372;2023-03-01T03:05:45;1.50;81.60
20288;DHT22;10303;51.960;8.372;2023-03-01T03:08:13;3.60;82.80
20288;DHT22;10303;51.960;8.372;2023-03-01T03:10:41;1.40;81.50
20288;DHT22;10303;51.960;8.372;2023-03-01T03:13:13;2.20;82.00
20288;DHT22;10303;51.960;8.372;2023-03-01T03:15:40;1.40;81.70
20288;DHT22;10303;51.960;8.372;2023-03-01T03:18:10;2.90;82.50
20288;DHT22;10303;51.960;8.372;2023-03-01T03:20:40;1.40;81.60
20288;DHT22;10303;51.960;8.372;2023-03-01T03:23:06;1.10;81.50
20288;DHT22;10303;51.960;8.372;2023-03-01T03:25:33;3.10;82.80
20288;DHT22;10303;51.960;8.372;2023-03-01T03:28:04;3.00;82.80
20288;DHT22;10303;51.960;8.372;2023-03-01T03:30:37;1.30;81.60
20288;DHT22;10303;51.960;8.372;2023-03-01T03:33:05;1.20;81.60
20288;DHT22;10303;51.960;8.372;2023-03-01T03:35:46;2.90;82.80
20288;DHT22;10303;51.960;8.372;2023-03-01T03:38:15;1.20;81.70
20288;DHT22;10303;51.960;8.372;2023-03-01T03:40:48;1.20;81.80
20288;DHT22;10303;51.960;8.372;2023-03-01T03:43:18;1.20;82.00
20288;DHT22;10303;51.960;8.372;2023-03-01T03:45:47;3.60;83.50
20288;DHT22;10303;51.960;8.372;2023-03-01T03:48:15;2.50;82.70
20288;DHT22;10303;51.960;8.372;2023-03-01T03:50:46;2.70;83.00
20288;DHT22;10303;51.960;8.372;2023-03-01T03:53:14;0.90;81.90
20288;DHT22;10303;51.960;8.372;2023-03-01T03:55:40;2.90;83.50
20288;DHT22;10303;51.960;8.372;2023-03-01T03:58:09;2.00;83.20
20288;DHT22;10303;51.960;8.372;2023-03-01T04:00:38;1.00;82.40
20288;DHT22;10303;51.960;8.372;2023-03-01T04:03:06;3.20;83.90
20288;DHT22;10303;51.960;8.372;2023-03-01T04:05:33;1.00;82.30
20288;DHT22;10303;51.960;8.372;2023-03-01T04:07:59;0.90;82.30
20288;DHT22;10303;51.960;8.372;2023-03-01T04:10:30;1.00;82.60
20288;DHT22;10303;51.960;8.372;2023-03-01T04:12:58;1.00;82.70
20288;DHT22;10303;51.960;8.372;2023-03-01T04:15:26;0.90;83.30
20288;DHT22;10303;51.960;8.372;2023-03-01T04:17:53;0.90;82.70
20288;DHT22;10303;51.960;8.372;2023-03-01T04:20:22;0.90;82.70
20288;DHT22;10303;51.960;8.372;2023-03-01T04:23:12;1.70;83.30
20288;DHT22;10303;51.960;8.372;2023-03-01T04:25:53;0.80;82.70
20288;DHT22;10303;51.960;8.372;2023-03-01T04:30:57;0.90;82.80
20288;DHT22;10303;51.960;8.372;2023-03-01T04:33:27;0.80;82.90
20288;DHT22;10303;51.960;8.372;2023-03-01T04:35:53;1.90;83.80
20288;DHT22;10303;51.960;8.372;2023-03-01T04:38:19;0.90;83.10
20288;DHT22;10303;51.960;8.372;2023-03-01T04:40:46;2.30;84.00
20288;DHT22;10303;51.960;8.372;2023-03-01T04:43:13;0.80;83.00
20288;DHT22;10303;51.960;8.372;2023-03-01T04:45:40;0.90;83.10
20288;DHT22;10303;51.960;8.372;2023-03-01T04:48:07;0.80;82.70
20288;DHT22;10303;51.960;8.372;2023-03-01T04:50:33;0.80;82.70
20288;DHT22;10303;51.960;8.372;2023-03-01T04:53:00;0.80;82.80
20288;DHT22;10303;51.960;8.372;2023-03-01T04:55:27;3.10;84.40
20288;DHT22;10303;51.960;8.372;2023-03-01T04:57:54;0.80;82.90
20288;DHT22;10303;51.960;8.372;2023-03-01T05:00:21;0.80;83.00
20288;DHT22;10303;51.960;8.372;2023-03-01T05:02:52;0.80;83.20
20288;DHT22;10303;51.960;8.372;2023-03-01T05:05:26;2.50;84.30
20288;DHT22;10303;51.960;8.372;2023-03-01T05:07:59;1.70;84.00
20288;DHT22;10303;51.960;8.372;2023-03-01T05:10:28;1.10;83.50
20288;DHT22;10303;51.960;8.372;2023-03-01T05:12:57;1.60;83.90
20288;DHT22;10303;51.960;8.372;2023-03-01T05:15:25;0.70;83.50
20288;DHT22;10303;51.960;8.372;2023-03-01T05:17:54;0.80;83.30
20288;DHT22;10303;51.960;8.372;2023-03-01T05:20:24;0.60;83.20
20288;DHT22;10303;51.960;8.372;2023-03-01T05:22:58;2.40;84.50
20288;DHT22;10303;51.960;8.372;2023-03-01T05:25:26;2.30;84.50
20288;DHT22;10303;51.960;8.372;2023-03-01T05:27:52;0.70;83.30
20288;DHT22;10303;51.960;8.372;2023-03-01T05:30:18;0.40;83.30
20288;DHT22;10303;51.960;8.372;2023-03-01T05:32:49;0.70;83.60
20288;DHT22;10303;51.960;8.372;2023-03-01T05:35:21;1.90;84.30
20288;DHT22;10303;51.960;8.372;2023-03-01T05:37:48;2.60;84.60
20288;DHT22;10303;51.960;8.372;2023-03-01T05:40:21;0.60;83.50
20288;DHT22;10303;51.960;8.372;2023-03-01T05:42:56;0.60;83.60
20288;DHT22;10303;51.960;8.372;2023-03-01T05:45:24;0.60;83.80
20288;DHT22;10303;51.960;8.372;2023-03-01T05:47:52;0.60;83.60
20288;DHT22;10303;51.960;8.372;2023-03-01T05:50:23;0.50;83.50
20288;DHT22;10303;51.960;8.372;2023-03-01T05:52:56;3.00;85.20
20288;DHT22;10303;51.960;8.372;2023-03-01T05:55:29;0.60;83.90
20288;DHT22;10303;51.960;8.372;2023-03-01T05:57:59;0.60;83.70
20288;DHT22;10303;51.960;8.372;2023-03-01T06:00:26;0.50;83.80
20288;DHT22;10303;51.960;8.372;2023-03-01T06:02:54;0.50;83.90
20288;DHT22;10303;51.960;8.372;2023-03-01T06:05:21;0.50;83.80
20288;DHT22;10303;51.960;8.372;2023-03-01T06:07:48;0.50;83.70
20288;DHT22;10303;51.960;8.372;2023-03-01T06:10:16;0.50;83.70
20288;DHT22;10303;51.960;8.372;2023-03-01T06:12:43;0.40;83.60
20288;DHT22;10303;51.960;8.372;2023-03-01T06:15:15;0.40;84.10
20288;DHT22;10303;51.960;8.372;2023-03-01T06:17:43;0.40;83.80
20288;DHT22;10303;51.960;8.372;2023-03-01T06:20:20;1.70;84.60
20288;DHT22;10303;51.960;8.372;2023-03-01T06:22:48;0.40;84.00
20288;DHT22;10303;51.960;8.372;2023-03-01T06:25:18;0.30;83.80
20288;DHT22;10303;51.960;8.372;2023-03-01T06:27:46;0.30;84.00
20288;DHT22;10303;51.960;8.372;2023-03-01T06:30:16;0.30;83.90
20288;DHT22;10303;51.960;8.372;2023-03-01T06:32:43;0.50;84.10
20288;DHT22;10303;51.960;8.372;2023-03-01T06:35:11;0.30;84.00
20288;DHT22;10303;51.960;8.372;2023-03-01T06:37:40;0.30;84.10
20288;DHT22;10303;51.960;8.372;2023-03-01T06:40:08;2.20;85.50
20288;DHT22;10303;51.960;8.372;2023-03-01T06:42:37;0.30;84.40
20288;DHT22;10303;51.960;8.372;2023-03-01T06:45:05;0.30;84.30
20288;DHT22;10303;51.960;8.372;2023-03-01T06:47:33;0.30;84.40
20288;DHT22;10303;51.960;8.372;2023-03-01T06:50:00;0.20;84.30
20288;DHT22;10303;51.960;8.372;2023-03-01T06:52:27;0.20;84.40
20288;DHT22;10303;51.960;8.372;2023-03-01T06:54:53;0.20;84.60
20288;DHT22;10303;51.960;8.372;2023-03-01T06:57:18;2.50;86.10
20288;DHT22;10303;51.960;8.372;2023-03-01T06:59:44;0.20;84.80
20288;DHT22;10303;51.960;8.372;2023-03-01T07:02:12;0.20;84.70
20288;DHT22;10303;51.960;8.372;2023-03-01T07:04:41;0.20;85.10
20288;DHT22;10303;51.960;8.372;2023-03-01T07:07:07;0.20;85.90
20288;DHT22;10303;51.960;8.372;2023-03-01T07:09:34;0.20;85.20
20288;DHT22;10303;51.960;8.372;2023-03-01T07:12:00;0.20;85.40
20288;DHT22;10303;51.960;8.372;2023-03-01T07:14:26;0.20;85.40
20288;DHT22;10303;51.960;8.372;2023-03-01T07:16:53;0.30;85.70
20288;DHT22;10303;51.960;8.372;2023-03-01T07:19:20;0.20;85.80
20288;DHT22;10303;51.960;8.372;2023-03-01T07:21:46;0.30;86.00
20288;DHT22;10303;51.960;8.372;2023-03-01T07:24:13;0.30;85.90
20288;DHT22;10303;51.960;8.372;2023-03-01T07:26:38;0.30;86.80
20288;DHT22;10303;51.960;8.372;2023-03-01T07:29:06;0.30;87.40
20288;DHT22;10303;51.960;8.372;2023-03-01T07:31:35;0.40;87.00
20288;DHT22;10303;51.960;8.372;2023-03-01T07:34:03;0.50;87.10
20288;DHT22;10303;51.960;8.372;2023-03-01T07:36:28;0.40;87.60
20288;DHT22;10303;51.960;8.372;2023-03-01T07:38:54;0.50;87.60
20288;DHT22;10303;51.960;8.372;2023-03-01T07:41:21;0.50;87.80
20288;DHT22;10303;51.960;8.372;2023-03-01T07:43:47;2.30;89.20
20288;DHT22;10303;51.960;8.372;2023-03-01T07:46:13;0.70;88.50
20288;DHT22;10303;51.960;8.372;2023-03-01T07:48:39;0.80;88.70
20288;DHT22;10303;51.960;8.372;2023-03-01T07:51:06;0.80;88.80
20288;DHT22;10303;51.960;8.372;2023-03-01T07:53:33;1.00;89.50
20288;DHT22;10303;51.960;8.372;2023-03-01T07:56:08;1.00;89.90
20288;DHT22;10303;51.960;8.372;2023-03-01T07:58:39;1.10;90.10
20288;DHT22;10303;51.960;8.372;2023-03-01T08:01:09;1.90;90.20
20288;DHT22;10303;51.960;8.372;2023-03-01T08:03:38;1.20;90.30
20288;DHT22;10303;51.960;8.372;2023-03-01T08:06:06;1.30;90.30
20288;DHT22;10303;51.960;8.372;2023-03-01T08:08:34;1.50;90.30
20288;DHT22;10303;51.960;8.372;2023-03-01T08:11:02;2.40;90.70
20288;DHT22;10303;51.960;8.372;2023-03-01T08:13:30;3.40;91.10
20288;DHT22;10303;51.960;8.372;2023-03-01T08:16:01;1.70;90.70
20288;DHT22;10303;51.960;8.372;2023-03-01T08:18:32;1.90;90.80
20288;DHT22;10303;51.960;8.372;2023-03-01T08:21:09;3.10;91.20
20288;DHT22;10303;51.960;8.372;2023-03-01T08:23:40;2.10;91.20
20288;DHT22;10303;51.960;8.372;2023-03-01T08:26:12;2.60;91.20
20288;DHT22;10303;51.960;8.372;2023-03-01T08:28:40;2.30;91.30
20288;DHT22;10303;51.960;8.372;2023-03-01T08:31:23;2.60;91.20
20288;DHT22;10303;51.960;8.372;2023-03-01T08:33:54;2.50;91.30
20288;DHT22;10303;51.960;8.372;2023-03-01T08:36:32;2.60;91.30
20288;DHT22;10303;51.960;8.372;2023-03-01T08:39:01;2.80;91.40
20288;DHT22;10303;51.960;8.372;2023-03-01T08:41:27;2.80;91.40
20288;DHT22;10303;51.960;8.372;2023-03-01T08:43:54;4.50;92.00
20288;DHT22;10303;51.960;8.372;2023-03-01T08:46:42;5.20;92.50
20288;DHT22;10303;51.960;8.372;2023-03-01T08:49:18;4.50;92.40
20288;DHT22;10303;51.960;8.372;2023-03-01T08:51:46;3.30;91.90
20288;DHT22;10303;51.960;8.372;2023-03-01T08:54:15;3.40;91.90
20288;DHT22;10303;51.960;8.372;2023-03-01T08:56:43;3.50;91.90
20288;DHT22;10303;51.960;8.372;2023-03-01T08:59:13;3.60;92.20
20288;DHT22;10303;51.960;8.372;2023-03-01T09:01:41;3.80;92.70
20288;DHT22;10303;51.960;8.372;2023-03-01T09:04:11;3.90;93.00
20288;DHT22;10303;51.960;8.372;2023-03-01T09:06:37;4.10;93.20
20288;DHT22;10303;51.960;8.372;2023-03-01T09:09:05;4.40;93.40
20288;DHT22;10303;51.960;8.372;2023-03-01T09:11:31;4.60;93.60
20288;DHT22;10303;51.960;8.372;2023-03-01T09:13:57;4.80;93.80
20288;DHT22;10303;51.960;8.372;2023-03-01T09:16:23;5.10;94.20
20288;DHT22;10303;51.960;8.372;2023-03-01T09:18:51;5.40;94.50
20288;DHT22;10303;51.960;8.372;2023-03-01T09:21:20;5.60;94.50
20288;DHT22;10303;51.960;8.372;2023-03-01T09:23:48;5.90;94.60
20288;DHT22;10303;51.960;8.372;2023-03-01T09:26:20;6.20;94.70
20288;DHT22;10303;51.960;8.372;2023-03-01T09:28:49;6.50;94.80
20288;DHT22;10303;51.960;8.372;2023-03-01T09:31:20;6.80;94.50
20288;DHT22;10303;51.960;8.372;2023-03-01T09:33:49;7.10;94.60
20288;DHT22;10303;51.960;8.372;2023-03-01T09:36:19;7.50;94.50
20288;DHT22;10303;51.960;8.372;2023-03-01T09:38:47;7.70;94.30
20288;DHT22;10303;51.960;8.372;2023-03-01T09:44:01;8.20;93.00
20288;DHT22;10303;51.960;8.372;2023-03-01T09:46:38;8.50;92.90
20288;DHT22;10303;51.960;8.372;2023-03-01T09:49:15;8.70;92.70
20288;DHT22;10303;51.960;8.372;2023-03-01T09:52:00;9.20;92.50
20288;DHT22;10303;51.960;8.372;2023-03-01T09:54:35;9.10;91.70
20288;DHT22;10303;51.960;8.372;2023-03-01T09:57:18;9.30;91.50
20288;DHT22;10303;51.960;8.372;2023-03-01T09:59:55;9.60;91.80
20288;DHT22;10303;51.960;8.372;2023-03-01T10:02:46;9.80;90.60
20288;DHT22;10303;51.960;8.372;2023-03-01T10:08:58;10.20;90.70
20288;DHT22;10303;51.960;8.372;2023-03-01T10:11:37;10.40;88.50
20288;DHT22;10303;51.960;8.372;2023-03-01T10:14:18;10.60;90.30
20288;DHT22;10303;51.960;8.372;2023-03-01T10:17:03;10.90;87.30
20288;DHT22;10303;51.960;8.372;2023-03-01T10:19:45;11.10;88.50
20288;DHT22;10303;51.960;8.372;2023-03-01T10:22:18;11.20;87.90
20288;DHT22;10303;51.960;8.372;2023-03-01T10:24:47;11.30;87.20
20288;DHT22;10303;51.960;8.372;2023-03-01T10:27:26;11.70;86.40
20288;DHT22;10303;51.960;8.372;2023-03-01T10:32:38;11.80;84.30
20288;DHT22;10303;51.960;8.372;2023-03-01T10:35:21;12.00;82.40
20288;DHT22;10303;51.960;8.372;2023-03-01T10:38:10;12.10;83.00
20288;DHT22;10303;51.960;8.372;2023-03-01T10:40:54;12.20;82.30
20288;DHT22;10303;51.960;8.372;2023-03-01T10:44:02;12.40;81.40
20288;DHT22;10303;51.960;8.372;2023-03-01T10:46:34;12.50;79.60
20288;DHT22;10303;51.960;8.372;2023-03-01T10:49:18;12.60;80.60
20288;DHT22;10303;51.960;8.372;2023-03-01T10:51:48;12.80;80.30
20288;DHT22;10303;51.960;8.372;2023-03-01T10:57:01;13.00;78.10
20288;DHT22;10303;51.960;8.372;2023-03-01T10:59:35;13.20;78.10
20288;DHT22;10303;51.960;8.372;2023-03-01T11:02:26;13.30;78.20
20288;DHT22;10303;51.960;8.372;2023-03-01T11:07:54;13.60;77.60
20288;DHT22;10303;51.960;8.372;2023-03-01T11:10:27;13.80;76.30
20288;DHT22;10303;51.960;8.372;2023-03-01T11:13:18;14.00;76.90
20288;DHT22;10303;51.960;8.372;2023-03-01T11:16:04;14.00;76.00
20288;DHT22;10303;51.960;8.372;2023-03-01T11:18:33;14.20;75.80
20288;DHT22;10303;51.960;8.372;2023-03-01T11:21:01;14.40;74.10
20288;DHT22;10303;51.960;8.372;2023-03-01T11:23:30;14.40;72.70
20288;DHT22;10303;51.960;8.372;2023-03-01T11:26:07;14.60;73.70
20288;DHT22;10303;51.960;8.372;2023-03-01T11:28:38;14.70;73.30
20288;DHT22;10303;51.960;8.372;2023-03-01T11:31:10;14.80;71.40
20288;DHT22;10303;51.960;8.372;2023-03-01T11:36:46;15.10;72.90
20288;DHT22;10303;51.960;8.372;2023-03-01T11:42:06;15.30;70.00
20288;DHT22;10303;51.960;8.372;2023-03-01T11:44:36;15.40;69.30
20288;DHT22;10303;51.960;8.372;2023-03-01T11:47:13;15.50;68.90
20288;DHT22;10303;51.960;8.372;2023-03-01T12:18:44;16.30;63.50
20288;DHT22;10303;51.960;8.372;2023-03-01T12:22:00;16.40;63.60
20288;DHT22;10303;51.960;8.372;2023-03-01T12:24:46;16.40;61.90
20288;DHT22;10303;51.960;8.372;2023-03-01T12:28:03;16.50;62.70
20288;DHT22;10303;51.960;8.372;2023-03-01T12:30:57;16.60;62.20
20288;DHT22;10303;51.960;8.372;2023-03-01T12:42:58;17.10;60.20
20288;DHT22;10303;51.960;8.372;2023-03-01T12:46:20;17.10;59.50
20288;DHT22;10303;51.960;8.372;2023-03-01T12:51:45;17.30;59.10
20288;DHT22;10303;51.960;8.372;2023-03-01T12:54:31;17.40;59.10
20288;DHT22;10303;51.960;8.372;2023-03-01T12:57:12;17.40;58.70
20288;DHT22;10303;51.960;8.372;2023-03-01T13:00:02;17.40;57.80
20288;DHT22;10303;51.960;8.372;2023-03-01T13:02:52;17.50;58.00
20288;DHT22;10303;51.960;8.372;2023-03-01T13:05:40;17.50;57.40
20288;DHT22;10303;51.960;8.372;2023-03-01T13:08:31;17.50;57.50
20288;DHT22;10303;51.960;8.372;2023-03-01T13:11:21;17.50;56.60
20288;DHT22;10303;51.960;8.372;2023-03-01T13:13:48;17.40;55.20
20288;DHT22;10303;51.960;8.372;2023-03-01T13:19:08;17.30;54.70
20288;DHT22;10303;51.960;8.372;2023-03-01T13:21:39;17.20;55.70
20288;DHT22;10303;51.960;8.372;2023-03-01T13:24:37;17.10;55.20
20288;DHT22;10303;51.960;8.372;2023-03-01T13:27:20;17.00;54.10
20288;DHT22;10303;51.960;8.372;2023-03-01T13:29:51;16.90;54.80
20288;DHT22;10303;51.960;8.372;2023-03-01T13:32:24;16.90;54.30
20288;DHT22;10303;51.960;8.372;2023-03-01T13:34:53;16.60;54.80
20288;DHT22;10303;51.960;8.372;2023-03-01T13:37:24;16.50;54.30
20288;DHT22;10303;51.960;8.372;2023-03-01T13:40:00;16.30;54.60
20288;DHT22;10303;51.960;8.372;2023-03-01T13:42:39;16.30;54.90
20288;DHT22;10303;51.960;8.372;2023-03-01T13:45:19;16.10;54.80
20288;DHT22;10303;51.960;8.372;2023-03-01T13:48:00;16.00;54.40
20288;DHT22;10303;51.960;8.372;2023-03-01T13:50:30;15.90;54.40
20288;DHT22;10303;51.960;8.372;2023-03-01T13:53:05;15.80;54.60
20288;DHT22;10303;51.960;8.372;2023-03-01T13:55:36;15.70;55.20
20288;DHT22;10303;51.960;8.372;2023-03-01T13:58:24;15.50;55.30
20288;DHT22;10303;51.960;8.372;2023-03-01T14:01:06;15.50;54.70
20288;DHT22;10303;51.960;8.372;2023-03-01T14:03:40;15.30;54.70
20288;DHT22;10303;51.960;8.372;2023-03-01T14:06:15;15.30;55.30
20288;DHT22;10303;51.960;8.372;2023-03-01T14:08:46;15.20;55.60
20288;DHT22;10303;51.960;8.372;2023-03-01T14:11:42;15.10;55.10
20288;DHT22;10303;51.960;8.372;2023-03-01T14:17:52;15.00;54.80
20288;DHT22;10303;51.960;8.372;2023-03-01T14:20:22;15.00;55.50
20288;DHT22;10303;51.960;8.372;2023-03-01T14:22:53;14.90;55.60
20288;DHT22;10303;51.960;8.372;2023-03-01T14:25:34;14.90;54.70
20288;DHT22;10303;51.960;8.372;2023-03-01T14:28:19;14.80;56.00
20288;DHT22;10303;51.960;8.372;2023-03-01T14:30:57;14.80;53.60
20288;DHT22;10303;51.960;8.372;2023-03-01T14:33:35;14.70;54.80
20288;DHT22;10303;51.960;8.372;2023-03-01T14:36:08;14.70;54.20
20288;DHT22;10303;51.960;8.372;2023-03-01T14:38:40;14.60;55.10
20288;DHT22;10303;51.960;8.372;2023-03-01T14:41:28;14.60;55.30
20288;DHT22;10303;51.960;8.372;2023-03-01T14:44:21;14.50;54.20
20288;DHT22;10303;51.960;8.372;2023-03-01T14:46:55;14.50;54.80
20288;DHT22;10303;51.960;8.372;2023-03-01T14:49:25;14.50;54.70
20288;DHT22;10303;51.960;8.372;2023-03-01T14:52:02;14.50;54.70
20288;DHT22;10303;51.960;8.372;2023-03-01T14:54:40;14.40;54.60
20288;DHT22;10303;51.960;8.372;2023-03-01T14:57:22;14.30;55.20
20288;DHT22;10303;51.960;8.372;2023-03-01T14:59:52;14.30;55.20
20288;DHT22;10303;51.960;8.372;2023-03-01T15:02:25;14.30;55.70
20288;DHT22;10303;51.960;8.372;2023-03-01T15:04:58;14.30;55.70
20288;DHT22;10303;51.960;8.372;2023-03-01T15:07:30;14.20;56.00
20288;DHT22;10303;51.960;8.372;2023-03-01T15:09:59;14.20;55.40
20288;DHT22;10303;51.960;8.372;2023-03-01T15:14:56;14.20;55.70
20288;DHT22;10303;51.960;8.372;2023-03-01T15:17:27;14.20;55.50
20288;DHT22;10303;51.960;8.372;2023-03-01T15:20:06;14.10;55.70
20288;DHT22;10303;51.960;8.372;2023-03-01T15:22:44;14.10;56.20
20288;DHT22;10303;51.960;8.372;2023-03-01T15:25:18;14.00;55.70
20288;DHT22;10303;51.960;8.372;2023-03-01T15:27:48;14.10;56.00
20288;DHT22;10303;51.960;8.372;2023-03-01T15:30:26;14.20;55.20
20288;DHT22;10303;51.960;8.372;2023-03-01T15:33:20;14.00;55.40
20288;DHT22;10303;51.960;8.372;2023-03-01T15:36:01;13.90;55.90
20288;DHT22;10303;51.960;8.372;2023-03-01T15:38:35;13.90;55.60
20288;DHT22;10303;51.960;8.372;2023-03-01T15:41:31;13.80;55.50
20288;DHT22;10303;51.960;8.372;2023-03-01T15:44:29;13.80;55.30
20288;DHT22;10303;51.960;8.372;2023-03-01T15:46:58;13.70;55.70
20288;DHT22;10303;51.960;8.372;2023-03-01T15:52:22;13.60;55.40
20288;DHT22;10303;51.960;8.372;2023-03-01T15:54:56;13.50;55.60
20288;DHT22;10303;51.960;8.372;2023-03-01T15:57:24;13.50;55.50
20288;DHT22;10303;51.960;8.372;2023-03-01T15:59:50;13.50;55.80
20288;DHT22;10303;51.960;8.372;2023-03-01T16:02:16;13.40;56.10
20288;DHT22;10303;51.960;8.372;2023-03-01T16:04:42;13.40;56.20
20288;DHT22;10303;51.960;8.372;2023-03-01T16:07:09;13.30;56.00
20288;DHT22;10303;51.960;8.372;2023-03-01T16:09:35;13.30;56.00
20288;DHT22;10303;51.960;8.372;2023-03-01T16:12:01;13.30;56.70
20288;DHT22;10303;51.960;8.372;2023-03-01T16:14:27;13.20;56.40
20288;DHT22;10303;51.960;8.372;2023-03-01T16:16:53;13.20;56.70
20288;DHT22;10303;51.960;8.372;2023-03-01T16:19:19;13.30;56.90
20288;DHT22;10303;51.960;8.372;2023-03-01T16:21:45;13.10;56.90
20288;DHT22;10303;51.960;8.372;2023-03-01T16:24:13;13.10;57.00
20288;DHT22;10303;51.960;8.372;2023-03-01T16:26:39;13.00;57.00
20288;DHT22;10303;51.960;8.372;2023-03-01T16:29:05;13.00;57.20
20288;DHT22;10303;51.960;8.372;2023-03-01T16:31:31;12.90;57.00
20288;DHT22;10303;51.960;8.372;2023-03-01T16:33:58;12.90;57.80
20288;DHT22;10303;51.960;8.372;2023-03-01T16:36:27;12.80;57.10
20288;DHT22;10303;51.960;8.372;2023-03-01T16:38:58;12.70;57.80
20288;DHT22;10303;51.960;8.372;2023-03-01T16:41:27;12.70;57.30
20288;DHT22;10303;51.960;8.372;2023-03-01T16:43:53;12.60;57.20
20288;DHT22;10303;51.960;8.372;2023-03-01T16:46:23;12.50;57.90
20288;DHT22;10303;51.960;8.372;2023-03-01T16:48:51;12.40;57.40
20288;DHT22;10303;51.960;8.372;2023-03-01T16:51:18;12.30;57.40
20288;DHT22;10303;51.960;8.372;2023-03-01T16:53:45;12.30;57.50
20288;DHT22;10303;51.960;8.372;2023-03-01T16:56:12;12.30;57.80
20288;DHT22;10303;51.960;8.372;2023-03-01T16:58:41;12.10;58.40
20288;DHT22;10303;51.960;8.372;2023-03-01T17:01:15;12.00;57.80
20288;DHT22;10303;51.960;8.372;2023-03-01T17:03:52;11.90;57.80
20288;DHT22;10303;51.960;8.372;2023-03-01T17:06:20;11.80;57.90
20288;DHT22;10303;51.960;8.372;2023-03-01T17:08:47;11.60;58.00
20288;DHT22;10303;51.960;8.372;2023-03-01T17:11:16;11.70;58.20
20288;DHT22;10303;51.960;8.372;2023-03-01T17:13:44;11.40;58.20
20288;DHT22;10303;51.960;8.372;2023-03-01T17:16:13;11.30;58.30
20288;DHT22;10303;51.960;8.372;2023-03-01T17:18:41;11.20;58.40
20288;DHT22;10303;51.960;8.372;2023-03-01T17:21:11;11.20;58.50
20288;DHT22;10303;51.960;8.372;2023-03-01T17:23:45;11.00;58.70
20288;DHT22;10303;51.960;8.372;2023-03-01T17:26:26;10.90;58.70
20288;DHT22;10303;51.960;8.372;2023-03-01T17:28:57;10.80;58.80
20288;DHT22;10303;51.960;8.372;2023-03-01T17:31:24;10.70;58.80
20288;DHT22;10303;51.960;8.372;2023-03-01T17:33:50;10.60;58.80